sensor_id;sensor_type;location;lat;lon;timestamp;P1;durP1;ratioP1;P2;durP2;ratioP2
15192;SDS011;7697;51.630;7.484;2023-02-07T00:04:34;16.30;;;10.37;;
15192;SDS011;7697;51.630;7.484;2023-02-07T00:09:36;12.47;;;8.80;;
15192;SDS011;7697;51.630;7.484;2023-02-07T00:14:39;12.83;;;8.23;;
15192;SDS011;7697;51.630;7.484;2023-02-07T00:19:40;15.43;;;9.97;;
15192;SDS011;7697;51.630;7.484;2023-02-07T00:24:42;15.40;;;9.37;;
15192;SDS011;7697;51.630;7.484;2023-02-07T00:29:45;14.67;;;8.90;;
15192;SDS011;7697;51.630;7.484;2023-02-07T00:34:47;16.67;;;8.53;;
15192;SDS011;7697;51.630;7.484;2023-02-07T00:39:50;15.13;;;9.57;;
15192;SDS011;7697;51.630;7.484;2023-02-07T00:44:53;14.03;;;9.27;;
15192;SDS011;7697;51.630;7.484;2023-02-07T00:49:55;13.97;;;9.67;;
15192;SDS011;7697;51.630;7.484;2023-02-07T00:54:57;13.73;;;9.47;;
15192;SDS011;7697;51.630;7.484;2023-02-07T01:00:00;15.80;;;8.93;;
15192;SDS011;7697;51.630;7.484;2023-02-07T01:05:01;12.27;;;8.73;;
15192;SDS011;7697;51.630;7.484;2023-02-07T01:10:03;14.50;;;9.23;;
15192;SDS011;7697;51.630;7.484;2023-02-07T01:15:07;12.80;;;7.97;;
15192;SDS011;7697;51.630;7.484;2023-02-07T01:20:09;9.83;;;7.10;;
15192;SDS011;7697;51.630;7.484;2023-02-07T01:25:12;10.13;;;7.23;;
15192;SDS011;7697;51.630;7.484;2023-02-07T01:30:15;9.53;;;6.97;;
15192;SDS011;7697;51.630;7.484;2023-02-07T01:35:17;10.73;;;7.27;;
15192;SDS011;7697;51.630;7.484;2023-02-07T01:40:19;9.10;;;6.37;;
15192;SDS011;7697;51.630;7.484;2023-02-07T01:45:25;8.57;;;6.60;;
15192;SDS011;7697;51.630;7.484;2023-02-07T01:50:29;9.17;;;7.13;;
15192;SDS011;7697;51.630;7.484;2023-02-07T01:55:33;7.77;;;5.93;;
15192;SDS011;7697;51.630;7.484;2023-02-07T02:00:39;7.77;;;5.83;;
15192;SDS011;7697;51.630;7.484;2023-02-07T02:05:41;9.03;;;5.53;;
15192;SDS011;7697;51.630;7.484;2023-02-07T02:10:52;8.23;;;6.10;;
15192;SDS011;7697;51.630;7.484;2023-02-07T02:16:03;7.80;;;5.97;;
15192;SDS011;7697;51.630;7.484;2023-02-07T02:26:55;8.07;;;6.30;;
15192;SDS011;7697;51.630;7.484;2023-02-07T02:37:41;7.80;;;5.80;;
15192;SDS011;7697;51.630;7.484;2023-02-07T02:42:53;8.93;;;6.00;;
15192;SDS011;7697;51.630;7.484;2023-02-07T02:48:01;8.20;;;5.87;;
15192;SDS011;7697;51.630;7.484;2023-02-07T02:53:06;7.87;;;5.67;;
15192;SDS011;7697;51.630;7.484;2023-02-07T02:58:10;8.27;;;5.93;;
15192;SDS011;7697;51.630;7.484;2023-02-07T03:03:34;8.43;;;5.67;;
15192;SDS011;7697;51.630;7.484;2023-02-07T03:08:47;7.53;;;5.77;;
15192;SDS011;7697;51.630;7.484;2023-02-07T03:13:58;7.83;;;6.10;;
15192;SDS011;7697;51.630;7.484;2023-02-07T03:19:08;8.50;;;6.30;;
15192;SDS011;7697;51.630;7.484;2023-02-07T03:24:15;7.70;;;6.13;;
15192;SDS011;7697;51.630;7.484;2023-02-07T03:29:20;7.03;;;5.57;;
15192;SDS011;7697;51.630;7.484;2023-02-07T03:34:24;7.50;;;5.87;;
15192;SDS011;7697;51.630;7.484;2023-02-07T03:39:34;7.57;;;5.77;;
15192;SDS011;7697;51.630;7.484;2023-02-07T03:44:36;7.77;;;5.70;;
15192;SDS011;7697;51.630;7.484;2023-02-07T03:49:42;7.97;;;6.07;;
15192;SDS011;7697;51.630;7.484;2023-02-07T03:54:45;10.77;;;6.13;;
15192;SDS011;7697;51.630;7.484;2023-02-07T03:59:46;7.07;;;5.90;;
15192;SDS011;7697;51.630;7.484;2023-02-07T04:04:48;8.43;;;6.43;;
15192;SDS011;7697;51.630;7.484;2023-02-07T04:09:51;7.80;;;6.23;;
15192;SDS011;7697;51.630;7.484;2023-02-07T04:14:53;11.03;;;6.40;;
15192;SDS011;7697;51.630;7.484;2023-02-07T04:19:55;8.20;;;6.23;;
15192;SDS011;7697;51.630;7.484;2023-02-07T04:24:58;10.47;;;6.33;;
15192;SDS011;7697;51.630;7.484;2023-02-07T04:29:59;7.90;;;5.97;;
15192;SDS011;7697;51.630;7.484;2023-02-07T04:35:01;9.90;;;7.13;;
15192;SDS011;7697;51.630;7.484;2023-02-07T04:40:05;10.50;;;7.53;;
15192;SDS011;7697;51.630;7.484;2023-02-07T04:45:07;13.30;;;8.57;;
15192;SDS011;7697;51.630;7.484;2023-02-07T04:50:09;14.23;;;9.97;;
15192;SDS011;7697;51.630;7.484;2023-02-07T04:55:12;13.17;;;10.23;;
15192;SDS011;7697;51.630;7.484;2023-02-07T05:00:14;11.40;;;8.83;;
15192;SDS011;7697;51.630;7.484;2023-02-07T05:05:17;12.53;;;9.00;;
15192;SDS011;7697;51.630;7.484;2023-02-07T05:10:20;13.40;;;9.43;;
15192;SDS011;7697;51.630;7.484;2023-02-07T05:15:21;13.07;;;9.40;;
15192;SDS011;7697;51.630;7.484;2023-02-07T05:20:23;11.67;;;9.03;;
15192;SDS011;7697;51.630;7.484;2023-02-07T05:25:27;15.17;;;9.77;;
15192;SDS011;7697;51.630;7.484;2023-02-07T05:30:29;15.80;;;9.97;;
15192;SDS011;7697;51.630;7.484;2023-02-07T05:35:31;12.33;;;8.30;;
15192;SDS011;7697;51.630;7.484;2023-02-07T05:40:35;10.40;;;7.37;;
15192;SDS011;7697;51.630;7.484;2023-02-07T05:45:38;10.80;;;8.00;;
15192;SDS011;7697;51.630;7.484;2023-02-07T05:50:40;9.90;;;7.37;;
15192;SDS011;7697;51.630;7.484;2023-02-07T05:55:43;10.20;;;7.70;;
15192;SDS011;7697;51.630;7.484;2023-02-07T06:00:44;9.97;;;7.60;;
15192;SDS011;7697;51.630;7.484;2023-02-07T06:05:47;12.17;;;8.00;;
15192;SDS011;7697;51.630;7.484;2023-02-07T06:10:51;11.60;;;9.03;;
15192;SDS011;7697;51.630;7.484;2023-02-07T06:15:52;13.30;;;9.10;;
15192;SDS011;7697;51.630;7.484;2023-02-07T06:20:54;12.23;;;8.53;;
15192;SDS011;7697;51.630;7.484;2023-02-07T06:25:57;11.40;;;8.50;;
15192;SDS011;7697;51.630;7.484;2023-02-07T06:30:59;14.57;;;10.30;;
15192;SDS011;7697;51.630;7.484;2023-02-07T06:36:00;11.97;;;8.53;;
15192;SDS011;7697;51.630;7.484;2023-02-07T06:41:04;14.57;;;9.57;;
15192;SDS011;7697;51.630;7.484;2023-02-07T06:46:09;12.53;;;9.37;;
15192;SDS011;7697;51.630;7.484;2023-02-07T06:51:12;12.93;;;9.83;;
15192;SDS011;7697;51.630;7.484;2023-02-07T06:56:15;12.37;;;9.20;;
15192;SDS011;7697;51.630;7.484;2023-02-07T07:01:16;12.83;;;9.23;;
15192;SDS011;7697;51.630;7.484;2023-02-07T07:06:21;11.83;;;8.40;;
15192;SDS011;7697;51.630;7.484;2023-02-07T07:11:24;12.50;;;8.57;;
15192;SDS011;7697;51.630;7.484;2023-02-07T07:16:26;9.40;;;7.80;;
15192;SDS011;7697;51.630;7.484;2023-02-07T07:21:27;15.40;;;10.27;;
15192;SDS011;7697;51.630;7.484;2023-02-07T07:26:31;16.10;;;10.27;;
15192;SDS011;7697;51.630;7.484;2023-02-07T07:31:32;16.83;;;9.83;;
15192;SDS011;7697;51.630;7.484;2023-02-07T07:36:34;15.30;;;11.03;;
15192;SDS011;7697;51.630;7.484;2023-02-07T07:41:37;15.50;;;10.67;;
15192;SDS011;7697;51.630;7.484;2023-02-07T07:46:39;16.03;;;10.37;;
15192;SDS011;7697;51.630;7.484;2023-02-07T07:51:41;16.27;;;11.23;;
15192;SDS011;7697;51.630;7.484;2023-02-07T07:56:44;19.57;;;13.27;;
15192;SDS011;7697;51.630;7.484;2023-02-07T08:01:46;23.57;;;16.03;;
15192;SDS011;7697;51.630;7.484;2023-02-07T08:06:48;18.13;;;12.97;;
15192;SDS011;7697;51.630;7.484;2023-02-07T08:11:51;14.33;;;11.07;;
15192;SDS011;7697;51.630;7.484;2023-02-07T08:16:53;15.67;;;11.90;;
15192;SDS011;7697;51.630;7.484;2023-02-07T08:21:54;16.80;;;12.40;;
15192;SDS011;7697;51.630;7.484;2023-02-07T08:26:57;22.70;;;14.07;;
15192;SDS011;7697;51.630;7.484;2023-02-07T08:31:59;17.33;;;12.47;;
15192;SDS011;7697;51.630;7.484;2023-02-07T08:37:01;18.87;;;11.73;;
15192;SDS011;7697;51.630;7.484;2023-02-07T08:42:06;16.87;;;11.53;;
15192;SDS011;7697;51.630;7.484;2023-02-07T08:47:08;18.90;;;13.07;;
15192;SDS011;7697;51.630;7.484;2023-02-07T08:52:10;17.87;;;11.97;;
15192;SDS011;7697;51.630;7.484;2023-02-07T08:57:13;16.47;;;11.70;;
15192;SDS011;7697;51.630;7.484;2023-02-07T09:02:16;18.53;;;12.43;;
15192;SDS011;7697;51.630;7.484;2023-02-07T09:07:18;15.17;;;11.70;;
15192;SDS011;7697;51.630;7.484;2023-02-07T09:12:21;13.23;;;10.63;;
15192;SDS011;7697;51.630;7.484;2023-02-07T09:17:23;15.00;;;11.43;;
15192;SDS011;7697;51.630;7.484;2023-02-07T09:22:25;14.90;;;10.97;;
15192;SDS011;7697;51.630;7.484;2023-02-07T09:27:28;15.63;;;11.50;;
15192;SDS011;7697;51.630;7.484;2023-02-07T09:32:30;12.87;;;10.33;;
15192;SDS011;7697;51.630;7.484;2023-02-07T09:37:31;14.30;;;10.60;;
15192;SDS011;7697;51.630;7.484;2023-02-07T09:42:37;10.67;;;9.03;;
15192;SDS011;7697;51.630;7.484;2023-02-07T09:47:45;11.87;;;10.00;;
15192;SDS011;7697;51.630;7.484;2023-02-07T09:52:55;14.00;;;9.93;;
15192;SDS011;7697;51.630;7.484;2023-02-07T09:58:05;16.37;;;10.80;;
15192;SDS011;7697;51.630;7.484;2023-02-07T10:03:12;14.77;;;11.27;;
15192;SDS011;7697;51.630;7.484;2023-02-07T10:08:17;13.30;;;10.13;;
15192;SDS011;7697;51.630;7.484;2023-02-07T10:13:23;10.43;;;8.80;;
15192;SDS011;7697;51.630;7.484;2023-02-07T10:18:41;12.00;;;9.00;;
15192;SDS011;7697;51.630;7.484;2023-02-07T10:23:50;10.63;;;8.70;;
15192;SDS011;7697;51.630;7.484;2023-02-07T10:34:43;9.13;;;7.83;;
15192;SDS011;7697;51.630;7.484;2023-02-07T10:39:48;10.17;;;7.87;;
15192;SDS011;7697;51.630;7.484;2023-02-07T10:44:54;7.00;;;6.30;;
15192;SDS011;7697;51.630;7.484;2023-02-07T10:49:58;7.13;;;5.83;;
15192;SDS011;7697;51.630;7.484;2023-02-07T10:55:04;6.37;;;5.47;;
15192;SDS011;7697;51.630;7.484;2023-02-07T11:00:13;6.83;;;6.10;;
15192;SDS011;7697;51.630;7.484;2023-02-07T11:05:30;8.80;;;6.77;;
15192;SDS011;7697;51.630;7.484;2023-02-07T11:10:37;9.37;;;6.20;;
15192;SDS011;7697;51.630;7.484;2023-02-07T11:15:45;7.97;;;6.55;;
15192;SDS011;7697;51.630;7.484;2023-02-07T11:20:50;7.18;;;5.88;;
15192;SDS011;7697;51.630;7.484;2023-02-07T11:25:55;6.20;;;4.90;;
15192;SDS011;7697;51.630;7.484;2023-02-07T11:30:59;5.97;;;5.38;;
15192;SDS011;7697;51.630;7.484;2023-02-07T11:36:11;4.77;;;4.33;;
15192;SDS011;7697;51.630;7.484;2023-02-07T11:41:21;6.43;;;4.47;;
15192;SDS011;7697;51.630;7.484;2023-02-07T11:46:32;6.10;;;4.73;;
15192;SDS011;7697;51.630;7.484;2023-02-07T11:51:38;6.10;;;4.70;;
15192;SDS011;7697;51.630;7.484;2023-02-07T11:56:41;6.17;;;4.53;;
15192;SDS011;7697;51.630;7.484;2023-02-07T12:01:47;5.07;;;4.57;;
15192;SDS011;7697;51.630;7.484;2023-02-07T12:06:54;5.07;;;4.57;;
15192;SDS011;7697;51.630;7.484;2023-02-07T12:11:59;4.90;;;4.27;;
15192;SDS011;7697;51.630;7.484;2023-02-07T12:17:04;4.88;;;4.28;;
15192;SDS011;7697;51.630;7.484;2023-02-07T12:22:15;5.05;;;4.32;;
15192;SDS011;7697;51.630;7.484;2023-02-07T12:27:21;5.03;;;4.37;;
15192;SDS011;7697;51.630;7.484;2023-02-07T12:32:31;5.60;;;4.80;;
15192;SDS011;7697;51.630;7.484;2023-02-07T12:37:43;4.57;;;4.18;;
15192;SDS011;7697;51.630;7.484;2023-02-07T12:42:51;5.53;;;3.85;;
15192;SDS011;7697;51.630;7.484;2023-02-07T12:47:58;5.72;;;4.00;;
15192;SDS011;7697;51.630;7.484;2023-02-07T12:53:14;4.55;;;3.53;;
15192;SDS011;7697;51.630;7.484;2023-02-07T12:58:31;4.30;;;3.90;;
15192;SDS011;7697;51.630;7.484;2023-02-07T13:09:18;3.88;;;3.42;;
15192;SDS011;7697;51.630;7.484;2023-02-07T13:14:30;4.18;;;3.60;;
15192;SDS011;7697;51.630;7.484;2023-02-07T13:19:42;3.50;;;3.20;;
15192;SDS011;7697;51.630;7.484;2023-02-07T13:24:54;4.00;;;3.60;;
15192;SDS011;7697;51.630;7.484;2023-02-07T13:29:55;3.70;;;3.30;;
15192;SDS011;7697;51.630;7.484;2023-02-07T13:35:00;4.97;;;3.45;;
15192;SDS011;7697;51.630;7.484;2023-02-07T13:40:07;3.38;;;3.08;;
15192;SDS011;7697;51.630;7.484;2023-02-07T13:45:22;3.58;;;3.28;;
15192;SDS011;7697;51.630;7.484;2023-02-07T13:50:34;2.90;;;2.65;;
15192;SDS011;7697;51.630;7.484;2023-02-07T13:55:42;5.22;;;2.70;;
15192;SDS011;7697;51.630;7.484;2023-02-07T14:00:58;3.47;;;3.17;;
15192;SDS011;7697;51.630;7.484;2023-02-07T14:06:13;4.22;;;3.83;;
15192;SDS011;7697;51.630;7.484;2023-02-07T14:11:26;4.72;;;3.90;;
15192;SDS011;7697;51.630;7.484;2023-02-07T14:16:42;4.07;;;2.97;;
15192;SDS011;7697;51.630;7.484;2023-02-07T14:21:46;3.63;;;3.10;;
15192;SDS011;7697;51.630;7.484;2023-02-07T14:27:26;3.50;;;3.13;;
15192;SDS011;7697;51.630;7.484;2023-02-07T14:32:31;3.88;;;3.30;;
15192;SDS011;7697;51.630;7.484;2023-02-07T14:37:43;4.20;;;2.80;;
15192;SDS011;7697;51.630;7.484;2023-02-07T14:42:52;4.95;;;2.92;;
15192;SDS011;7697;51.630;7.484;2023-02-07T14:47:55;2.92;;;2.50;;
15192;SDS011;7697;51.630;7.484;2023-02-07T14:52:59;3.08;;;2.60;;
15192;SDS011;7697;51.630;7.484;2023-02-07T14:58:04;3.80;;;3.03;;
15192;SDS011;7697;51.630;7.484;2023-02-07T15:03:09;3.08;;;2.78;;
15192;SDS011;7697;51.630;7.484;2023-02-07T15:08:16;5.15;;;2.63;;
15192;SDS011;7697;51.630;7.484;2023-02-07T15:13:21;4.28;;;2.95;;
15192;SDS011;7697;51.630;7.484;2023-02-07T15:18:26;3.20;;;2.90;;
15192;SDS011;7697;51.630;7.484;2023-02-07T15:23:32;3.28;;;2.70;;
15192;SDS011;7697;51.630;7.484;2023-02-07T15:28:34;4.03;;;3.35;;
15192;SDS011;7697;51.630;7.484;2023-02-07T15:33:37;3.40;;;3.10;;
15192;SDS011;7697;51.630;7.484;2023-02-07T15:38:41;3.25;;;2.95;;
15192;SDS011;7697;51.630;7.484;2023-02-07T15:43:51;4.18;;;3.40;;
15192;SDS011;7697;51.630;7.484;2023-02-07T15:48:57;4.75;;;3.20;;
15192;SDS011;7697;51.630;7.484;2023-02-07T15:54:00;4.25;;;3.45;;
15192;SDS011;7697;51.630;7.484;2023-02-07T15:59:07;4.13;;;3.45;;
15192;SDS011;7697;51.630;7.484;2023-02-07T16:04:12;4.45;;;3.55;;
15192;SDS011;7697;51.630;7.484;2023-02-07T16:14:49;5.03;;;3.58;;
15192;SDS011;7697;51.630;7.484;2023-02-07T16:19:51;8.57;;;7.15;;
15192;SDS011;7697;51.630;7.484;2023-02-07T16:24:52;7.82;;;6.13;;
15192;SDS011;7697;51.630;7.484;2023-02-07T16:29:56;6.75;;;5.30;;
15192;SDS011;7697;51.630;7.484;2023-02-07T16:34:58;5.50;;;5.00;;
15192;SDS011;7697;51.630;7.484;2023-02-07T16:40:00;6.00;;;4.65;;
15192;SDS011;7697;51.630;7.484;2023-02-07T16:45:04;5.13;;;4.25;;
15192;SDS011;7697;51.630;7.484;2023-02-07T16:50:06;4.00;;;3.53;;
15192;SDS011;7697;51.630;7.484;2023-02-07T16:55:13;4.47;;;4.07;;
15192;SDS011;7697;51.630;7.484;2023-02-07T17:00:17;6.28;;;5.03;;
15192;SDS011;7697;51.630;7.484;2023-02-07T17:05:21;5.35;;;4.57;;
15192;SDS011;7697;51.630;7.484;2023-02-07T17:10:24;5.07;;;4.53;;
15192;SDS011;7697;51.630;7.484;2023-02-07T17:15:30;6.05;;;5.45;;
15192;SDS011;7697;51.630;7.484;2023-02-07T17:20:33;7.80;;;6.13;;
15192;SDS011;7697;51.630;7.484;2023-02-07T17:25:35;12.38;;;9.50;;
15192;SDS011;7697;51.630;7.484;2023-02-07T17:30:39;9.40;;;7.50;;
15192;SDS011;7697;51.630;7.484;2023-02-07T17:35:41;7.90;;;6.63;;
15192;SDS011;7697;51.630;7.484;2023-02-07T17:40:43;8.27;;;7.17;;
15192;SDS011;7697;51.630;7.484;2023-02-07T17:45:46;9.23;;;6.97;;
15192;SDS011;7697;51.630;7.484;2023-02-07T17:50:48;9.40;;;7.90;;
15192;SDS011;7697;51.630;7.484;2023-02-07T17:55:50;13.07;;;8.80;;
15192;SDS011;7697;51.630;7.484;2023-02-07T18:00:53;12.53;;;9.53;;
15192;SDS011;7697;51.630;7.484;2023-02-07T18:05:55;16.07;;;10.77;;
15192;SDS011;7697;51.630;7.484;2023-02-07T18:10:57;14.83;;;11.03;;
15192;SDS011;7697;51.630;7.484;2023-02-07T18:16:05;15.63;;;11.13;;
15192;SDS011;7697;51.630;7.484;2023-02-07T18:21:07;13.13;;;9.40;;
15192;SDS011;7697;51.630;7.484;2023-02-07T18:26:09;14.07;;;10.10;;
15192;SDS011;7697;51.630;7.484;2023-02-07T18:31:13;11.47;;;8.83;;
15192;SDS011;7697;51.630;7.484;2023-02-07T18:36:16;15.77;;;11.30;;
15192;SDS011;7697;51.630;7.484;2023-02-07T18:41:18;13.27;;;10.10;;
15192;SDS011;7697;51.630;7.484;2023-02-07T18:46:23;19.03;;;11.80;;
15192;SDS011;7697;51.630;7.484;2023-02-07T18:51:25;13.47;;;10.23;;
15192;SDS011;7697;51.630;7.484;2023-02-07T18:56:27;11.83;;;8.90;;
15192;SDS011;7697;51.630;7.484;2023-02-07T19:01:30;13.43;;;10.10;;
15192;SDS011;7697;51.630;7.484;2023-02-07T19:06:34;13.03;;;9.80;;
15192;SDS011;7697;51.630;7.484;2023-02-07T19:11:35;12.77;;;9.73;;
15192;SDS011;7697;51.630;7.484;2023-02-07T19:16:39;15.97;;;11.10;;
15192;SDS011;7697;51.630;7.484;2023-02-07T19:21:41;16.00;;;11.70;;
15192;SDS011;7697;51.630;7.484;2023-02-07T19:26:43;16.50;;;12.90;;
15192;SDS011;7697;51.630;7.484;2023-02-07T19:31:46;17.03;;;11.47;;
15192;SDS011;7697;51.630;7.484;2023-02-07T19:36:48;14.73;;;10.93;;
15192;SDS011;7697;51.630;7.484;2023-02-07T19:41:50;14.90;;;11.40;;
15192;SDS011;7697;51.630;7.484;2023-02-07T19:46:53;16.40;;;11.53;;
15192;SDS011;7697;51.630;7.484;2023-02-07T19:51:55;15.47;;;10.90;;
15192;SDS011;7697;51.630;7.484;2023-02-07T19:56:56;15.90;;;11.33;;
15192;SDS011;7697;51.630;7.484;2023-02-07T20:01:59;16.83;;;10.97;;
15192;SDS011;7697;51.630;7.484;2023-02-07T20:07:01;13.67;;;10.57;;
15192;SDS011;7697;51.630;7.484;2023-02-07T20:12:03;17.60;;;11.80;;
15192;SDS011;7697;51.630;7.484;2023-02-07T20:17:07;15.60;;;11.00;;
15192;SDS011;7697;51.630;7.484;2023-02-07T20:22:09;14.00;;;10.70;;
15192;SDS011;7697;51.630;7.484;2023-02-07T20:27:11;18.30;;;11.60;;
15192;SDS011;7697;51.630;7.484;2023-02-07T20:32:14;17.90;;;11.83;;
15192;SDS011;7697;51.630;7.484;2023-02-07T20:37:16;16.67;;;11.90;;
15192;SDS011;7697;51.630;7.484;2023-02-07T20:42:18;15.80;;;11.87;;
15192;SDS011;7697;51.630;7.484;2023-02-07T20:47:21;16.23;;;11.80;;
15192;SDS011;7697;51.630;7.484;2023-02-07T20:52:22;17.00;;;12.37;;
15192;SDS011;7697;51.630;7.484;2023-02-07T20:57:24;17.27;;;12.10;;
15192;SDS011;7697;51.630;7.484;2023-02-07T21:02:27;15.67;;;11.33;;
15192;SDS011;7697;51.630;7.484;2023-02-07T21:07:29;13.90;;;10.73;;
15192;SDS011;7697;51.630;7.484;2023-02-07T21:12:31;15.40;;;10.80;;
15192;SDS011;7697;51.630;7.484;2023-02-07T21:17:34;16.57;;;12.63;;
15192;SDS011;7697;51.630;7.484;2023-02-07T21:22:35;15.20;;;11.30;;
15192;SDS011;7697;51.630;7.484;2023-02-07T21:27:37;18.57;;;12.87;;
15192;SDS011;7697;51.630;7.484;2023-02-07T21:32:40;19.93;;;14.53;;
15192;SDS011;7697;51.630;7.484;2023-02-07T21:37:42;16.70;;;12.20;;
15192;SDS011;7697;51.630;7.484;2023-02-07T21:42:44;14.20;;;10.43;;
15192;SDS011;7697;51.630;7.484;2023-02-07T21:47:48;15.47;;;10.73;;
15192;SDS011;7697;51.630;7.484;2023-02-07T21:52:49;14.27;;;10.13;;
15192;SDS011;7697;51.630;7.484;2023-02-07T21:57:51;15.47;;;11.20;;
15192;SDS011;7697;51.630;7.484;2023-02-07T22:02:54;16.43;;;11.27;;
15192;SDS011;7697;51.630;7.484;2023-02-07T22:07:56;15.50;;;11.40;;
15192;SDS011;7697;51.630;7.484;2023-02-07T22:12:57;17.23;;;12.30;;
15192;SDS011;7697;51.630;7.484;2023-02-07T22:18:00;18.07;;;12.27;;
15192;SDS011;7697;51.630;7.484;2023-02-07T22:23:02;19.23;;;12.70;;
15192;SDS011;7697;51.630;7.484;2023-02-07T22:28:04;18.17;;;11.63;;
15192;SDS011;7697;51.630;7.484;2023-02-07T22:33:08;16.13;;;11.70;;
15192;SDS011;7697;51.630;7.484;2023-02-07T22:38:10;17.73;;;11.40;;
15192;SDS011;7697;51.630;7.484;2023-02-07T22:43:13;16.30;;;12.03;;
15192;SDS011;7697;51.630;7.484;2023-02-07T22:48:18;17.53;;;12.73;;
15192;SDS011;7697;51.630;7.484;2023-02-07T22:53:19;18.83;;;12.87;;
15192;SDS011;7697;51.630;7.484;2023-02-07T22:58:21;15.83;;;10.97;;
15192;SDS011;7697;51.630;7.484;2023-02-07T23:03:24;16.33;;;11.93;;
15192;SDS011;7697;51.630;7.484;2023-02-07T23:08:26;15.67;;;10.90;;
15192;SDS011;7697;51.630;7.484;2023-02-07T23:13:27;16.17;;;10.83;;
15192;SDS011;7697;51.630;7.484;2023-02-07T23:18:30;15.07;;;10.67;;
15192;SDS011;7697;51.630;7.484;2023-02-07T23:23:32;14.33;;;10.27;;
15192;SDS011;7697;51.630;7.484;2023-02-07T23:28:34;16.13;;;11.27;;
15192;SDS011;7697;51.630;7.484;2023-02-07T23:33:38;16.80;;;11.30;;
15192;SDS011;7697;51.630;7.484;2023-02-07T23:38:40;17.40;;;11.83;;
15192;SDS011;7697;51.630;7.484;2023-02-07T23:43:42;16.93;;;11.87;;
15192;SDS011;7697;51.630;7.484;2023-02-07T23:48:47;14.87;;;10.20;;
15192;SDS011;7697;51.630;7.484;2023-02-07T23:53:48;14.00;;;10.13;;
15192;SDS011;7697;51.630;7.484;2023-02-07T23:58:50;15.40;;;11.00;;
